createdAt,value
2023-03-26T00:01:33.586Z,62.76
2023-03-26T00:04:01.303Z,63.15
2023-03-26T00:06:31.829Z,63.02
2023-03-26T00:08:58.997Z,63.06
2023-03-26T00:11:28.832Z,63.26
2023-03-26T00:13:57.729Z,63.25
2023-03-26T00:16:30.462Z,62.91
2023-03-26T00:18:58.685Z,63.01
2023-03-26T00:21:29.067Z,62.94
2023-03-26T00:24:04.690Z,63.12
2023-03-26T00:26:37.512Z,63.05
2023-03-26T00:29:06.771Z,63.24
2023-03-26T00:31:34.486Z,63.24
2023-03-26T00:34:03.752Z,63.38
2023-03-26T00:36:31.131Z,63.24
2023-03-26T00:38:58.056Z,63.37
2023-03-26T00:41:26.986Z,63.38
2023-03-26T00:43:57.278Z,63.84
2023-03-26T00:46:26.570Z,64.11
2023-03-26T00:48:54.162Z,63.95
2023-03-26T00:51:22.033Z,64.00
2023-03-26T00:53:50.881Z,63.73
2023-03-26T00:56:18.918Z,63.97
2023-03-26T00:58:47.409Z,63.68
2023-03-26T01:01:21.640Z,63.51
2023-03-26T01:04:04.801Z,63.45
2023-03-26T01:06:37.874Z,63.79
2023-03-26T01:09:17.268Z,63.35
2023-03-26T01:11:45.011Z,63.49
2023-03-26T01:14:26.842Z,63.19
2023-03-26T01:16:57.435Z,63.14
2023-03-26T01:19:38.210Z,62.84
2023-03-26T01:22:11.136Z,62.76
2023-03-26T01:24:39.958Z,63.39
2023-03-26T01:27:42.687Z,63.39
2023-03-26T01:30:33.578Z,63.62
2023-03-26T01:33:30.281Z,63.41
2023-03-26T01:36:05.486Z,63.49
2023-03-26T01:39:09.721Z,63.74
2023-03-26T01:41:47.804Z,64.05
2023-03-26T01:44:31.743Z,64.12
2023-03-26T01:47:01.135Z,63.77
2023-03-26T01:49:29.215Z,63.94
2023-03-26T01:51:58.045Z,64.25
2023-03-26T01:54:28.759Z,64.49
2023-03-26T01:57:24.100Z,64.11
2023-03-26T02:00:29.362Z,64.32
2023-03-26T02:03:19.566Z,64.57
2023-03-26T02:06:07.470Z,64.29
2023-03-26T02:08:41.290Z,64.19
2023-03-26T02:11:13.684Z,63.99
2023-03-26T02:13:45.355Z,64.39
2023-03-26T02:16:16.524Z,64.29
2023-03-26T02:18:51.380Z,64.32
2023-03-26T02:21:22.109Z,64.60
2023-03-26T02:23:57.694Z,64.56
2023-03-26T02:26:25.764Z,64.59
2023-03-26T02:28:58.736Z,64.05
2023-03-26T02:31:26.556Z,64.15
2023-03-26T02:33:55.525Z,64.62
2023-03-26T02:36:27.805Z,64.39
2023-03-26T02:38:58.166Z,64.28
2023-03-26T02:41:25.396Z,64.20
2023-03-26T02:44:06.252Z,63.76
2023-03-26T02:46:59.308Z,63.98
2023-03-26T02:49:45.299Z,64.00
2023-03-26T02:52:18.715Z,64.03
2023-03-26T02:54:47.489Z,63.87
2023-03-26T02:57:17.911Z,63.73
2023-03-26T02:59:50.564Z,63.95
2023-03-26T03:02:38.753Z,64.02
2023-03-26T03:05:26.588Z,63.84
2023-03-26T03:08:06.881Z,63.68
2023-03-26T03:10:37.849Z,63.58
2023-03-26T03:13:18.014Z,63.81
2023-03-26T03:15:44.966Z,63.91
2023-03-26T03:18:11.862Z,63.72
2023-03-26T03:20:38.780Z,64.03
2023-03-26T03:23:05.690Z,63.56
2023-03-26T03:25:33.797Z,63.50
2023-03-26T03:28:00.933Z,63.75
2023-03-26T03:30:27.885Z,63.45
2023-03-26T03:33:19.196Z,63.36
2023-03-26T03:35:50.650Z,63.59
2023-03-26T03:38:19.240Z,63.97
2023-03-26T03:40:49.228Z,63.59
2023-03-26T03:43:17.258Z,63.64
2023-03-26T03:46:04.639Z,63.67
2023-03-26T03:48:39.821Z,63.71
2023-03-26T03:51:08.135Z,63.63
2023-03-26T03:53:50.418Z,63.67
2023-03-26T03:56:29.154Z,63.62
2023-03-26T03:59:17.562Z,63.56
2023-03-26T04:01:46.652Z,63.66
2023-03-26T04:04:24.676Z,63.60
2023-03-26T04:06:57.827Z,63.43
2023-03-26T04:09:27.668Z,63.64
2023-03-26T04:11:58.637Z,63.41
2023-03-26T04:14:42.034Z,63.20
2023-03-26T04:17:16.396Z,63.33
2023-03-26T04:19:45.136Z,63.30
2023-03-26T04:22:14.149Z,63.15
2023-03-26T04:24:54.319Z,63.09
2023-03-26T04:27:32.983Z,63.61
2023-03-26T04:30:20.564Z,62.92
2023-03-26T04:32:54.405Z,63.02
2023-03-26T04:35:21.630Z,62.81
2023-03-26T04:37:54.432Z,62.96
2023-03-26T04:40:39.039Z,62.49
2023-03-26T04:43:24.717Z,62.27
2023-03-26T04:46:18.533Z,62.22
2023-03-26T04:48:52.760Z,62.11
2023-03-26T04:51:25.608Z,62.14
2023-03-26T04:53:57.859Z,62.01
2023-03-26T04:56:53.281Z,62.00
2023-03-26T04:59:35.319Z,62.00
2023-03-26T05:02:06.392Z,61.98
2023-03-26T05:04:45.835Z,61.89
2023-03-26T05:07:20.464Z,62.05
2023-03-26T05:09:50.672Z,62.25
2023-03-26T05:12:23.368Z,62.41
2023-03-26T05:15:04.966Z,62.28
2023-03-26T05:17:48.458Z,62.49
2023-03-26T05:20:27.395Z,62.38
2023-03-26T05:22:54.687Z,62.50
2023-03-26T05:25:28.350Z,62.49
2023-03-26T05:27:56.425Z,62.60
2023-03-26T05:30:27.801Z,62.29
2023-03-26T05:32:59.148Z,62.48
2023-03-26T05:35:31.188Z,62.44
2023-03-26T05:37:58.598Z,62.39
2023-03-26T05:40:26.249Z,62.22
2023-03-26T05:43:00.907Z,62.40
2023-03-26T05:45:37.098Z,62.03
2023-03-26T05:48:26.136Z,61.91
2023-03-26T05:50:57.774Z,62.07
2023-03-26T05:53:28.041Z,61.99
2023-03-26T05:56:13.914Z,62.15
2023-03-26T05:59:01.168Z,62.17
2023-03-26T06:01:47.192Z,61.98
2023-03-26T06:04:32.559Z,61.85
2023-03-26T06:07:20.003Z,61.75
2023-03-26T06:09:59.709Z,61.72
2023-03-26T06:12:26.777Z,61.69
2023-03-26T06:14:53.717Z,61.92
2023-03-26T06:17:30.862Z,61.77
2023-03-26T06:20:12.872Z,61.35
2023-03-26T06:22:42.888Z,61.25
2023-03-26T06:25:33.544Z,61.28
2023-03-26T06:28:16.362Z,60.95
2023-03-26T06:31:02.280Z,60.36
2023-03-26T06:33:36.013Z,59.89
2023-03-26T06:36:03.896Z,60.18
2023-03-26T06:38:30.956Z,60.07
2023-03-26T06:41:06.167Z,60.32
2023-03-26T06:44:05.209Z,59.91
2023-03-26T06:46:50.666Z,59.85
2023-03-26T06:49:46.679Z,59.49
2023-03-26T06:52:28.572Z,59.22
2023-03-26T06:55:23.326Z,59.94
2023-03-26T06:58:06.624Z,60.08
2023-03-26T07:01:02.381Z,60.61
2023-03-26T07:03:47.748Z,61.23
2023-03-26T07:06:33.011Z,61.20
2023-03-26T07:09:18.408Z,61.69
2023-03-26T07:11:47.950Z,61.65
2023-03-26T07:14:41.129Z,62.08
2023-03-26T07:17:17.595Z,61.79
2023-03-26T07:19:50.020Z,61.53
2023-03-26T07:22:23.499Z,61.36
2023-03-26T07:25:14.936Z,61.91
2023-03-26T07:28:27.185Z,61.38
2023-03-26T07:31:34.627Z,59.16
2023-03-26T07:34:47.496Z,59.17
2023-03-26T07:37:59.307Z,58.93
2023-03-26T07:40:50.662Z,58.80
2023-03-26T07:43:53.592Z,57.73
2023-03-26T07:46:37.352Z,57.85
2023-03-26T07:49:17.850Z,57.50
2023-03-26T07:52:01.297Z,57.36
2023-03-26T07:54:46.733Z,56.50
2023-03-26T07:57:48.471Z,56.67
2023-03-26T08:00:39.244Z,56.87
2023-03-26T08:03:36.744Z,56.80
2023-03-26T08:06:37.817Z,56.19
2023-03-26T08:09:23.583Z,56.10
2023-03-26T08:12:45.361Z,55.68
2023-03-26T08:15:37.912Z,55.88
2023-03-26T08:18:49.998Z,55.18
2023-03-26T08:22:26.246Z,55.84
2023-03-26T08:25:17.729Z,54.99
2023-03-26T08:28:15.619Z,54.71
2023-03-26T08:30:43.652Z,54.92
2023-03-26T08:33:19.021Z,54.46
2023-03-26T08:35:46.953Z,54.49
2023-03-26T08:38:18.329Z,53.93
2023-03-26T08:41:10.347Z,53.85
2023-03-26T08:44:17.922Z,52.45
2023-03-26T08:47:23.921Z,52.58
2023-03-26T08:50:09.943Z,53.22
2023-03-26T08:53:39.294Z,53.27
2023-03-26T08:56:24.194Z,53.43
2023-03-26T08:59:51.566Z,52.99
2023-03-26T09:03:00.356Z,53.33
2023-03-26T09:06:06.830Z,52.80
2023-03-26T09:09:21.896Z,51.52
2023-03-26T09:12:01.802Z,51.38
2023-03-26T09:15:04.475Z,51.75
2023-03-26T09:18:05.733Z,51.22
2023-03-26T09:21:18.147Z,50.88
2023-03-26T09:24:50.880Z,51.04
2023-03-26T09:28:16.271Z,51.54
2023-03-26T09:31:58.208Z,49.44
2023-03-26T09:35:35.454Z,50.23
2023-03-26T09:38:42.227Z,49.75
2023-03-26T09:41:35.369Z,49.77
2023-03-26T09:44:44.452Z,48.66
2023-03-26T09:47:50.287Z,49.18
2023-03-26T09:51:00.905Z,49.04
2023-03-26T09:53:50.610Z,48.28
2023-03-26T09:56:49.772Z,47.58
2023-03-26T09:59:47.812Z,47.41
2023-03-26T10:02:53.340Z,46.66
2023-03-26T10:05:45.456Z,46.70
2023-03-26T10:08:32.555Z,47.24
2023-03-26T10:11:13.087Z,47.56
2023-03-26T10:13:52.493Z,47.50
2023-03-26T10:16:49.961Z,47.59
2023-03-26T10:19:59.812Z,47.33
2023-03-26T10:23:01.792Z,46.71
2023-03-26T10:26:15.997Z,46.94
2023-03-26T10:29:08.383Z,46.00
2023-03-26T10:32:17.985Z,46.80
2023-03-26T10:34:59.014Z,46.59
2023-03-26T10:37:47.942Z,46.33
2023-03-26T10:40:42.774Z,46.31
2023-03-26T10:43:39.605Z,46.68
2023-03-26T10:46:39.728Z,46.19
2023-03-26T10:49:39.724Z,45.76
2023-03-26T10:52:16.287Z,45.19
2023-03-26T10:54:56.412Z,45.01
2023-03-26T10:57:45.995Z,44.69
2023-03-26T11:00:28.878Z,44.32
2023-03-26T11:03:45.343Z,44.82
2023-03-26T11:06:48.762Z,43.59
2023-03-26T11:09:34.022Z,43.66
2023-03-26T11:12:28.459Z,42.61
2023-03-26T11:15:23.529Z,42.55
2023-03-26T11:18:20.706Z,42.72
2023-03-26T11:21:19.527Z,42.59
2023-03-26T11:24:25.513Z,42.96
2023-03-26T11:26:58.182Z,42.90
2023-03-26T11:30:03.549Z,43.28
2023-03-26T11:32:57.268Z,43.36
2023-03-26T11:35:44.000Z,42.55
2023-03-26T11:38:27.159Z,42.88
2023-03-26T11:40:56.935Z,42.93
2023-03-26T11:43:50.372Z,43.07
2023-03-26T11:46:21.615Z,42.79
2023-03-26T11:49:16.205Z,43.28
2023-03-26T11:51:47.424Z,42.56
2023-03-26T11:54:15.145Z,41.84
2023-03-26T11:57:05.148Z,41.76
2023-03-26T11:59:58.124Z,42.51
2023-03-26T12:02:35.555Z,41.65
2023-03-26T12:05:17.913Z,41.36
2023-03-26T12:07:49.394Z,41.43
2023-03-26T12:10:39.723Z,40.96
2023-03-26T12:13:21.212Z,41.50
2023-03-26T12:15:48.204Z,40.13
2023-03-26T12:18:26.058Z,40.77
2023-03-26T12:21:25.855Z,40.62
2023-03-26T12:24:04.670Z,40.61
2023-03-26T12:26:42.768Z,40.60
2023-03-26T12:29:17.116Z,40.63
2023-03-26T12:32:04.590Z,39.62
2023-03-26T12:34:35.894Z,39.76
2023-03-26T12:37:05.505Z,39.85
2023-03-26T12:40:09.418Z,40.97
2023-03-26T12:44:47.302Z,41.41
2023-03-26T12:45:24.655Z,40.57
2023-03-26T12:47:58.515Z,40.37
2023-03-26T12:51:01.753Z,40.22
2023-03-26T12:54:03.107Z,40.67
2023-03-26T12:57:11.990Z,40.02
2023-03-26T13:00:16.351Z,40.58
2023-03-26T13:03:12.111Z,40.29
2023-03-26T13:06:10.609Z,40.94
2023-03-26T13:09:12.994Z,41.23
2023-03-26T13:11:49.684Z,40.80
2023-03-26T13:14:35.013Z,40.99
2023-03-26T13:17:37.019Z,40.50
2023-03-26T13:20:30.557Z,40.54
2023-03-26T13:23:23.248Z,40.70
2023-03-26T13:26:18.072Z,40.55
2023-03-26T13:29:26.655Z,40.12
2023-03-26T13:32:20.531Z,39.84
2023-03-26T13:35:19.027Z,39.51
2023-03-26T13:38:09.014Z,40.25
2023-03-26T13:40:45.217Z,39.70
2023-03-26T13:43:53.592Z,39.56
2023-03-26T13:46:41.435Z,39.26
2023-03-26T13:49:08.205Z,38.50
2023-03-26T13:51:57.490Z,38.51
2023-03-26T13:54:55.856Z,38.81
2023-03-26T13:57:37.326Z,38.93
2023-03-26T14:00:14.105Z,38.91
2023-03-26T14:02:44.178Z,37.71
2023-03-26T14:05:31.208Z,38.18
2023-03-26T14:08:21.953Z,38.64
2023-03-26T14:11:07.696Z,37.97
2023-03-26T14:13:55.761Z,38.57
2023-03-26T14:16:37.145Z,38.73
2023-03-26T14:19:50.966Z,38.97
2023-03-26T14:23:12.774Z,39.56
2023-03-26T14:25:59.091Z,39.20
2023-03-26T14:29:18.786Z,38.72
2023-03-26T14:32:16.364Z,38.49
2023-03-26T14:35:20.998Z,38.39
2023-03-26T14:38:39.917Z,39.14
2023-03-26T14:41:24.000Z,38.76
2023-03-26T14:44:21.179Z,38.23
2023-03-26T14:47:10.064Z,38.77
2023-03-26T14:50:04.560Z,37.69
2023-03-26T14:52:48.068Z,38.24
2023-03-26T14:55:48.548Z,38.10
2023-03-26T14:58:41.579Z,38.58
2023-03-26T15:01:26.667Z,38.61
2023-03-26T15:04:30.317Z,38.99
2023-03-26T15:07:21.433Z,39.05
2023-03-26T15:10:16.798Z,39.02
2023-03-26T15:13:27.804Z,38.75
2023-03-26T15:16:49.636Z,38.61
2023-03-26T15:19:53.079Z,38.86
2023-03-26T15:22:43.226Z,38.66
2023-03-26T15:25:51.483Z,38.65
2023-03-26T15:29:05.302Z,38.82
2023-03-26T15:32:03.646Z,38.63
2023-03-26T15:35:09.668Z,39.18
2023-03-26T15:38:08.032Z,39.86
2023-03-26T15:40:59.541Z,39.63
2023-03-26T15:44:22.392Z,40.11
2023-03-26T15:46:37.935Z,40.50
2023-03-26T15:49:52.657Z,40.54
2023-03-26T15:52:36.459Z,40.86
2023-03-26T15:55:31.080Z,40.78
2023-03-26T15:58:26.151Z,40.38
2023-03-26T16:01:38.019Z,40.43
2023-03-26T16:04:38.773Z,40.51
2023-03-26T16:07:48.346Z,40.97
2023-03-26T16:10:40.845Z,41.33
2023-03-26T16:13:17.337Z,41.38
2023-03-26T16:15:55.920Z,41.58
2023-03-26T16:18:36.981Z,41.45
2023-03-26T16:21:32.842Z,41.82
2023-03-26T16:24:02.889Z,42.03
2023-03-26T16:26:53.075Z,41.60
2023-03-26T16:29:28.510Z,41.75
2023-03-26T16:32:15.779Z,41.83
2023-03-26T16:34:55.211Z,41.85
2023-03-26T16:37:50.580Z,42.32
2023-03-26T16:40:17.413Z,41.92
2023-03-26T16:43:02.087Z,42.03
2023-03-26T16:45:50.349Z,41.93
2023-03-26T16:48:30.463Z,41.98
2023-03-26T16:51:34.476Z,42.14
2023-03-26T16:54:28.111Z,42.58
2023-03-26T16:57:17.230Z,42.68
2023-03-26T17:00:16.216Z,42.60
2023-03-26T17:03:13.122Z,43.27
2023-03-26T17:05:58.020Z,43.24
2023-03-26T17:08:54.582Z,43.99
2023-03-26T17:12:00.739Z,44.23
2023-03-26T17:15:07.437Z,44.55
2023-03-26T17:18:01.243Z,44.51
2023-03-26T17:20:43.083Z,44.52
2023-03-26T17:24:15.665Z,44.66
2023-03-26T17:27:28.253Z,44.57
2023-03-26T17:30:51.861Z,44.70
2023-03-26T17:33:26.868Z,44.49
2023-03-26T17:36:21.382Z,44.72
2023-03-26T17:38:48.183Z,44.62
2023-03-26T17:41:55.409Z,44.44
2023-03-26T17:44:42.987Z,44.61
2023-03-26T17:47:39.687Z,44.72
2023-03-26T17:50:24.051Z,44.55
2023-03-26T17:53:03.007Z,44.69
2023-03-26T17:55:33.773Z,44.68
2023-03-26T17:58:23.129Z,44.86
2023-03-26T18:00:56.880Z,44.57
2023-03-26T18:03:34.943Z,44.59
2023-03-26T18:07:01.979Z,45.04
2023-03-26T18:09:45.656Z,45.12
2023-03-26T18:13:03.234Z,45.27
2023-03-26T18:16:15.725Z,45.21
2023-03-26T18:18:58.898Z,45.47
2023-03-26T18:21:38.891Z,45.73
2023-03-26T18:24:16.511Z,45.67
2023-03-26T18:26:48.544Z,45.44
2023-03-26T18:29:29.820Z,45.53
2023-03-26T18:32:00.870Z,45.43
2023-03-26T18:34:32.718Z,45.55
2023-03-26T18:37:11.156Z,45.61
2023-03-26T18:39:38.595Z,45.44
2023-03-26T18:42:06.970Z,45.48
2023-03-26T18:44:39.474Z,45.55
2023-03-26T18:47:09.576Z,45.42
2023-03-26T18:49:36.686Z,45.76
2023-03-26T18:52:03.737Z,45.50
2023-03-26T18:54:35.400Z,45.75
2023-03-26T18:57:21.472Z,45.62
2023-03-26T18:59:54.956Z,45.89
2023-03-26T19:02:22.701Z,46.37
2023-03-26T19:04:52.020Z,46.69
2023-03-26T19:07:25.830Z,46.88
2023-03-26T19:09:56.347Z,46.84
2023-03-26T19:12:33.131Z,47.22
2023-03-26T19:15:13.979Z,47.12
2023-03-26T19:17:46.446Z,47.26
2023-03-26T19:20:21.907Z,47.40
2023-03-26T19:22:49.318Z,47.53
2023-03-26T19:25:39.432Z,47.92
2023-03-26T19:28:22.100Z,48.13
2023-03-26T19:30:55.761Z,48.37
2023-03-26T19:33:24.461Z,48.60
2023-03-26T19:36:15.578Z,49.07
2023-03-26T19:38:49.986Z,49.06
2023-03-26T19:41:36.711Z,49.20
2023-03-26T19:44:21.160Z,49.42
2023-03-26T19:46:53.841Z,49.79
2023-03-26T19:49:41.264Z,49.86
2023-03-26T19:52:34.298Z,49.73
2023-03-26T19:55:15.490Z,50.02
2023-03-26T19:57:43.110Z,50.10
2023-03-26T20:00:15.103Z,49.85
2023-03-26T20:02:45.994Z,49.75
2023-03-26T20:05:28.837Z,49.80
2023-03-26T20:08:06.089Z,49.56
2023-03-26T20:10:35.867Z,49.44
2023-03-26T20:13:02.766Z,49.55
2023-03-26T20:15:33.270Z,48.96
2023-03-26T20:18:00.893Z,49.37
2023-03-26T20:20:27.891Z,49.39
2023-03-26T20:22:55.056Z,49.40
2023-03-26T20:25:33.292Z,49.72
2023-03-26T20:28:00.313Z,49.78
2023-03-26T20:30:37.376Z,49.82
2023-03-26T20:33:12.342Z,49.83
2023-03-26T20:35:41.158Z,49.95
2023-03-26T20:38:09.699Z,49.83
2023-03-26T20:40:38.240Z,49.96
2023-03-26T20:43:12.059Z,50.09
2023-03-26T20:45:39.292Z,50.10
2023-03-26T20:48:07.461Z,50.36
2023-03-26T20:50:35.972Z,50.81
2023-03-26T20:53:05.551Z,50.72
2023-03-26T20:55:32.472Z,50.81
2023-03-26T20:57:59.511Z,50.92
2023-03-26T21:00:26.505Z,51.43
2023-03-26T21:02:56.301Z,51.58
2023-03-26T21:05:26.886Z,52.20
2023-03-26T21:07:59.034Z,52.15
2023-03-26T21:10:31.020Z,52.33
2023-03-26T21:13:13.530Z,52.29
2023-03-26T21:15:40.697Z,51.94
2023-03-26T21:18:08.291Z,52.19
2023-03-26T21:20:37.154Z,52.11
2023-03-26T21:23:25.046Z,52.22
2023-03-26T21:26:25.494Z,52.34
2023-03-26T21:28:52.910Z,51.94
2023-03-26T21:31:24.076Z,51.95
2023-03-26T21:33:51.872Z,51.85
2023-03-26T21:36:19.928Z,52.18
2023-03-26T21:38:47.499Z,52.15
2023-03-26T21:41:23.242Z,52.04
2023-03-26T21:43:52.985Z,51.99
2023-03-26T21:46:20.546Z,51.91
2023-03-26T21:48:47.784Z,52.09
2023-03-26T21:51:15.146Z,51.70
2023-03-26T21:53:42.974Z,52.04
2023-03-26T21:56:46.047Z,52.77
2023-03-26T21:59:31.174Z,53.03
2023-03-26T22:02:29.178Z,53.49
2023-03-26T22:05:04.418Z,53.60
2023-03-26T22:07:43.488Z,53.77
2023-03-26T22:10:10.456Z,54.73
2023-03-26T22:12:37.336Z,54.90
2023-03-26T22:15:04.681Z,55.52
2023-03-26T22:17:32.705Z,55.33
2023-03-26T22:20:01.407Z,55.25
2023-03-26T22:22:28.882Z,55.34
2023-03-26T22:24:55.771Z,56.01
2023-03-26T22:27:22.672Z,55.79
2023-03-26T22:29:49.601Z,55.94
2023-03-26T22:32:16.640Z,55.60
2023-03-26T22:34:44.898Z,55.96
2023-03-26T22:37:11.912Z,55.36
2023-03-26T22:39:38.823Z,55.95
2023-03-26T22:42:05.902Z,55.35
2023-03-26T22:44:32.812Z,55.21
2023-03-26T22:47:01.295Z,55.68
2023-03-26T22:49:30.270Z,55.34
2023-03-26T22:51:57.251Z,55.08
2023-03-26T22:54:24.157Z,55.07
2023-03-26T22:56:52.298Z,54.92
2023-03-26T22:59:19.332Z,54.82
2023-03-26T23:01:46.628Z,54.52
2023-03-26T23:04:30.779Z,54.66
2023-03-26T23:06:58.918Z,54.78
2023-03-26T23:09:25.863Z,55.22
2023-03-26T23:11:52.724Z,54.98
2023-03-26T23:14:19.602Z,55.38
2023-03-26T23:16:46.470Z,55.21
2023-03-26T23:19:13.418Z,55.69
2023-03-26T23:21:40.328Z,55.52
2023-03-26T23:24:07.227Z,55.51
2023-03-26T23:26:49.566Z,55.80
2023-03-26T23:29:17.354Z,55.69
2023-03-26T23:31:44.339Z,55.72
2023-03-26T23:34:13.355Z,55.72
2023-03-26T23:36:41.702Z,55.62
2023-03-26T23:39:09.271Z,55.70
2023-03-26T23:41:36.746Z,56.00
2023-03-26T23:44:04.028Z,56.15
2023-03-26T23:46:34.581Z,56.13
2023-03-26T23:49:03.442Z,56.25
2023-03-26T23:51:31.023Z,56.11
2023-03-26T23:53:58.415Z,55.88
2023-03-26T23:56:27.547Z,55.50
2023-03-26T23:58:55.165Z,55.21
